Time;durP1;ratioP1;P1;durP2;ratioP2;P2;SDS_P1;SDS_P2;PMS_P1;PMS_P2;Temp;Humidity;BMP_temperature;BMP_pressure;BME280_temperature;BME280_humidity;BME280_pressure;Samples;Min_cycle;Max_cycle;Signal;HPM_P1;HPM_P2
2023/06/07 00:01:06;;;;;;;11.75;6.67;;;;;;;13.78;56.46;101175.84;1770914;80;21197;-57
2023/06/07 00:04:14;;;;;;;10.23;6.17;;;;;;;13.74;56.50;101173.13;1771266;80;21222;-57
2023/06/07 00:07:21;;;;;;;11.83;7.42;;;;;;;13.71;56.64;101165.73;1771021;80;21248;-57
2023/06/07 00:10:26;;;;;;;11.53;6.67;;;;;;;13.69;56.80;101169.17;1771301;81;21342;-58
2023/06/07 00:13:32;;;;;;;15.48;7.67;;;;;;;13.68;56.92;101164.72;1771308;79;21784;-58
2023/06/07 00:16:38;;;;;;;12.85;6.80;;;;;;;13.66;57.03;101164.89;1772464;79;21288;-57
2023/06/07 00:19:44;;;;;;;15.85;7.45;;;;;;;13.64;57.09;101172.45;1771036;81;21395;-57
2023/06/07 00:22:55;;;;;;;11.53;6.65;;;;;;;13.61;57.19;101182.44;1771109;81;21208;-57
2023/06/07 00:25:59;;;;;;;12.00;7.08;;;;;;;13.59;57.28;101176.79;1771206;81;21189;-57
2023/06/07 00:29:05;;;;;;;12.15;6.47;;;;;;;13.56;57.38;101178.52;1771054;80;21236;-57
2023/06/07 00:32:11;;;;;;;14.65;6.87;;;;;;;13.51;57.49;101184.02;1771101;80;21258;-57
2023/06/07 00:35:19;;;;;;;13.53;6.37;;;;;;;13.49;57.61;101179.73;1771286;80;21355;-57
2023/06/07 00:38:24;;;;;;;11.22;5.95;;;;;;;13.45;57.70;101181.09;1771322;80;21411;-57
2023/06/07 00:41:30;;;;;;;12.15;6.08;;;;;;;13.42;57.80;101177.33;1771304;81;21351;-57
2023/06/07 00:44:36;;;;;;;13.85;6.25;;;;;;;13.39;57.88;101179.05;1770897;79;21224;-57
2023/06/07 00:47:44;;;;;;;10.90;6.30;;;;;;;13.33;57.89;101178.38;1770960;80;21200;-57
2023/06/07 00:50:50;;;;;;;11.68;6.12;;;;;;;13.29;57.99;101186.11;1771048;80;21789;-57
2023/06/07 00:53:56;;;;;;;13.65;6.70;;;;;;;13.24;58.05;101183.02;1770971;80;21271;-57
2023/06/07 00:57:03;;;;;;;13.05;5.95;;;;;;;13.20;58.16;101180.30;1771492;80;21347;-57
2023/06/07 01:00:13;;;;;;;10.78;6.03;;;;;;;13.18;58.31;101176.84;1770910;81;21316;-57
2023/06/07 01:03:18;;;;;;;11.85;5.85;;;;;;;13.17;58.46;101184.77;1771088;81;21375;-58
2023/06/07 01:06:25;;;;;;;9.65;5.40;;;;;;;13.16;58.55;101173.94;1771114;79;21717;-57
2023/06/07 01:09:32;;;;;;;9.70;5.22;;;;;;;13.14;58.68;101172.74;1770852;81;21875;-57
2023/06/07 01:12:37;;;;;;;9.23;5.05;;;;;;;13.14;58.84;101169.99;1771234;80;21382;-57
2023/06/07 01:15:45;;;;;;;10.00;5.20;;;;;;;13.12;58.89;101174.80;1771085;80;21729;-57
2023/06/07 01:18:53;;;;;;;6.90;5.00;;;;;;;13.11;59.00;101174.44;1765085;80;21318;-57
2023/06/07 01:22:01;;;;;;;8.50;4.97;;;;;;;13.09;59.03;101183.39;1762400;80;21347;-57
2023/06/07 01:25:08;;;;;;;10.25;6.08;;;;;;;13.07;59.10;101177.70;1762499;80;21855;-58
2023/06/07 01:28:14;;;;;;;11.08;5.55;;;;;;;13.04;59.18;101173.42;1763194;81;21350;-57
2023/06/07 01:31:20;;;;;;;10.63;5.22;;;;;;;13.02;59.30;101178.73;1762459;81;21358;-56
2023/06/07 01:34:27;;;;;;;8.70;5.60;;;;;;;13.02;59.46;101178.23;1762398;81;21879;-57
2023/06/07 01:37:32;;;;;;;9.80;5.50;;;;;;;13.03;59.59;101179.94;1762401;81;21970;-57
2023/06/07 01:40:37;;;;;;;8.85;5.40;;;;;;;13.02;59.64;101191.09;1762357;81;21378;-57
2023/06/07 01:43:44;;;;;;;10.38;5.28;;;;;;;13.00;59.62;101186.28;1762397;81;21422;-57
2023/06/07 01:46:50;;;;;;;13.25;5.58;;;;;;;12.96;59.67;101185.76;1762377;81;21382;-57
2023/06/07 01:49:57;;;;;;;11.22;5.37;;;;;;;12.91;59.64;101188.66;1762470;81;21449;-58
2023/06/07 01:53:05;;;;;;;9.45;5.28;;;;;;;12.88;59.78;101183.01;1762701;81;21661;-57
2023/06/07 01:56:33;;;;;;;10.72;5.33;;;;;;;12.86;59.92;101182.84;1762493;81;21418;-58
2023/06/07 02:00:08;;;;;;;9.53;6.15;;;;;;;12.84;60.03;101181.64;1762747;81;21839;-57
2023/06/07 02:03:09;;;;;;;14.18;5.75;;;;;;;12.84;60.10;101183.02;1762452;81;21370;-57
2023/06/07 02:06:20;;;;;;;10.35;5.90;;;;;;;12.82;60.16;101182.83;1762513;81;21338;-58
2023/06/07 02:09:27;;;;;;;10.13;5.35;;;;;;;12.78;60.16;101183.67;1762507;81;21405;-57
2023/06/07 02:12:32;;;;;;;11.80;5.22;;;;;;;12.76;60.20;101183.02;1746565;81;21196;-57
2023/06/07 02:15:40;;;;;;;12.13;6.72;;;;;;;12.75;60.26;101176.31;1762470;81;21327;-57
2023/06/07 02:18:45;;;;;;;11.03;5.75;;;;;;;12.75;60.35;101181.27;1768133;76;21849;-57
2023/06/07 02:21:52;;;;;;;12.25;5.25;;;;;;;12.75;60.45;101181.81;1720505;82;21202;-56
2023/06/07 02:24:58;;;;;;;11.78;6.50;;;;;;;12.76;60.59;101184.39;1719395;82;21249;-59
2023/06/07 02:28:04;;;;;;;11.80;5.85;;;;;;;12.76;60.68;101180.27;1716921;82;21402;-57
2023/06/07 02:31:10;;;;;;;13.58;5.25;;;;;;;12.81;60.88;101179.21;1717500;82;21446;-57
2023/06/07 02:34:16;;;;;;;12.68;5.92;;;;;;;12.88;61.07;101180.77;1717416;82;21848;-57
2023/06/07 02:37:22;;;;;;;11.38;5.30;;;;;;;12.93;61.15;101179.73;1715289;82;21849;-58
2023/06/07 02:40:28;;;;;;;10.53;5.40;;;;;;;13.00;61.21;101179.41;1714265;82;21340;-58
2023/06/07 02:43:34;;;;;;;13.50;5.50;;;;;;;13.04;61.22;101183.05;1710510;82;21355;-58
2023/06/07 02:46:39;;;;;;;11.70;5.25;;;;;;;13.12;61.35;101180.80;1711650;82;21352;-58
2023/06/07 02:49:45;;;;;;;15.13;5.53;;;;;;;13.23;61.50;101183.20;1700524;82;21225;-58
2023/06/07 02:52:52;;;;;;;13.90;5.30;;;;;;;13.33;61.58;101188.84;1717294;82;21276;-57
2023/06/07 02:55:58;;;;;;;8.00;5.35;;;;;;;13.44;61.66;101183.52;1714031;82;21859;-56
2023/06/07 02:59:03;;;;;;;13.88;5.85;;;;;;;13.57;61.80;101185.22;1696442;83;21201;-57
2023/06/07 03:02:10;;;;;;;9.70;5.75;;;;;;;13.71;61.88;101182.24;1767610;81;21291;-57
2023/06/07 03:05:17;;;;;;;15.50;5.90;;;;;;;13.84;61.94;101180.67;1767649;81;21634;-58
2023/06/07 03:08:24;;;;;;;13.72;4.97;;;;;;;13.99;62.08;101176.63;1767607;81;21255;-56
2023/06/07 03:11:30;;;;;;;8.88;5.50;;;;;;;14.12;62.21;101179.17;1767679;81;21941;-58
2023/06/07 03:14:38;;;;;;;11.12;5.60;;;;;;;14.28;62.32;101172.75;1767545;80;21763;-56
2023/06/07 03:17:44;;;;;;;15.72;5.00;;;;;;;14.42;62.39;101169.22;1767607;81;21247;-56
2023/06/07 03:20:51;;;;;;;7.55;4.62;;;;;;;14.55;62.44;101166.22;1768611;78;21777;-56
2023/06/07 03:23:57;;;;;;;7.78;4.67;;;;;;;14.70;62.50;101162.99;1771212;80;21193;-57
2023/06/07 03:27:04;;;;;;;8.43;4.37;;;;;;;14.84;62.56;101167.70;1771136;80;21307;-55
2023/06/07 03:30:12;;;;;;;6.65;4.37;;;;;;;14.98;62.54;101164.69;1771350;80;21712;-57
2023/06/07 03:33:18;;;;;;;12.35;5.08;;;;;;;15.07;62.43;101166.32;1770981;81;21260;-57
2023/06/07 03:36:32;;;;;;;11.35;5.05;;;;;;;15.17;62.40;101166.92;1770850;81;21255;-56
2023/06/07 03:39:39;;;;;;;13.53;5.00;;;;;;;15.26;62.33;101164.92;1771329;79;21271;-56
2023/06/07 03:42:46;;;;;;;10.48;4.80;;;;;;;15.38;62.39;101168.45;1771081;80;21324;-57
2023/06/07 03:45:52;;;;;;;12.53;4.78;;;;;;;15.52;62.54;101166.27;1770949;81;21231;-57
2023/06/07 03:48:58;;;;;;;13.62;5.20;;;;;;;15.65;62.60;101156.78;1771187;81;21368;-57
2023/06/07 03:52:05;;;;;;;9.75;4.20;;;;;;;15.78;62.65;101161.12;1770946;81;21655;-57
2023/06/07 03:55:12;;;;;;;12.75;4.50;;;;;;;15.91;62.67;101162.70;1771104;80;21193;-57
2023/06/07 03:58:18;;;;;;;10.53;4.40;;;;;;;16.05;62.70;101161.83;1764256;81;21331;-56
2023/06/07 04:01:30;;;;;;;11.45;4.53;;;;;;;16.18;62.67;101164.77;1772431;80;21177;-56
2023/06/07 04:04:37;;;;;;;12.73;6.00;;;;;;;16.32;62.66;101159.73;1770861;79;21193;-56
2023/06/07 04:07:37;;;;;;;9.15;4.17;;;;;;;16.45;62.62;101161.83;1771371;80;21244;-56
2023/06/07 04:10:43;;;;;;;8.78;4.55;;;;;;;16.60;62.61;101168.70;1771152;81;21727;-56
2023/06/07 04:13:53;;;;;;;8.83;4.03;;;;;;;16.72;62.55;101169.37;1763823;80;21899;-56
2023/06/07 04:16:59;;;;;;;9.38;3.95;;;;;;;16.85;62.52;101170.03;1771004;80;21208;-56
2023/06/07 04:20:07;;;;;;;11.78;4.20;;;;;;;16.98;62.47;101168.23;1771584;80;21851;-57
2023/06/07 04:23:15;;;;;;;10.93;4.10;;;;;;;17.12;62.42;101170.10;1772156;79;21174;-56
2023/06/07 04:26:23;;;;;;;10.30;4.20;;;;;;;17.27;62.37;101172.76;1772234;80;21186;-57
2023/06/07 04:29:33;;;;;;;7.97;4.15;;;;;;;17.42;62.27;101173.53;1771097;80;21351;-55
2023/06/07 04:32:40;;;;;;;9.63;4.22;;;;;;;17.57;62.16;101172.92;1771715;80;21216;-56
2023/06/07 04:35:47;;;;;;;13.80;4.03;;;;;;;17.72;62.11;101172.30;1771022;80;21236;-56
2023/06/07 04:39:00;;;;;;;9.43;4.03;;;;;;;17.85;62.07;101160.76;1771319;80;22014;-55
2023/06/07 04:42:09;;;;;;;10.55;4.42;;;;;;;18.00;62.00;101171.72;1771108;80;21248;-56
2023/06/07 04:45:16;;;;;;;7.97;4.50;;;;;;;18.15;61.92;101163.27;1771042;80;21716;-56
2023/06/07 04:48:22;;;;;;;15.75;4.20;;;;;;;18.27;61.85;101159.70;1764354;81;21339;-56
2023/06/07 04:51:29;;;;;;;9.33;4.17;;;;;;;18.41;61.76;101167.04;1771206;80;21236;-57
2023/06/07 04:54:36;;;;;;;16.60;10.05;;;;;;;18.57;61.69;101168.06;1770736;81;21186;-55
2023/06/07 04:57:45;;;;;;;11.15;4.72;;;;;;;18.73;61.58;101167.69;1773079;79;21205;-55
2023/06/07 05:00:51;;;;;;;8.70;4.25;;;;;;;18.89;61.41;101171.45;1766418;80;21426;-59
2023/06/07 05:03:57;;;;;;;7.35;4.20;;;;;;;19.04;61.26;101166.55;1760821;81;21228;-56
2023/06/07 05:07:13;;;;;;;12.73;4.65;;;;;;;19.21;61.12;101172.56;1763048;79;21382;-55
2023/06/07 05:10:19;;;;;;;7.10;3.80;;;;;;;19.34;60.98;101163.72;1788405;79;21204;-54
2023/06/07 05:13:26;;;;;;;9.45;4.60;;;;;;;19.49;60.77;101164.06;1759894;79;21820;-53
2023/06/07 05:16:33;;;;;;;16.57;5.30;;;;;;;19.63;60.60;101167.98;1765800;79;21188;-56
2023/06/07 05:19:43;;;;;;;11.55;5.37;;;;;;;19.75;60.49;101170.96;1765888;79;21255;-55
2023/06/07 05:22:52;;;;;;;8.50;4.22;;;;;;;19.81;60.32;101163.14;1764607;80;21252;-55
2023/06/07 05:26:00;;;;;;;7.87;4.12;;;;;;;19.90;60.17;101161.30;1767002;79;21526;-54
2023/06/07 05:29:09;;;;;;;8.45;4.03;;;;;;;20.00;60.04;101159.46;1751904;80;22121;-56
2023/06/07 05:32:25;;;;;;;8.68;3.45;;;;;;;20.12;59.88;101166.91;1762112;80;21883;-55
2023/06/07 05:35:46;;;;;;;14.80;4.55;;;;;;;20.17;59.67;101163.53;1734912;81;21271;-54
2023/06/07 05:39:04;;;;;;;8.35;4.00;;;;;;;20.20;59.49;101165.30;1747394;80;21205;-55
2023/06/07 05:42:10;;;;;;;10.03;4.03;;;;;;;20.24;59.33;101167.12;1704771;83;21362;-54
2023/06/07 05:45:18;;;;;;;12.28;3.83;;;;;;;20.32;59.26;101166.88;1709972;83;21205;-54
2023/06/07 05:48:23;;;;;;;8.45;3.58;;;;;;;20.41;59.13;101173.36;1710640;83;21590;-56
2023/06/07 05:51:31;;;;;;;7.50;3.70;;;;;;;20.53;59.03;101168.80;1766738;79;21177;-54
2023/06/07 05:54:37;;;;;;;7.35;4.10;;;;;;;20.66;58.84;101160.39;1765487;81;21220;-54
2023/06/07 05:57:44;;;;;;;7.15;3.70;;;;;;;20.79;58.72;101165.02;1760334;81;21220;-54
2023/06/07 06:00:51;;;;;;;17.98;4.53;;;;;;;20.95;58.56;101161.72;1754920;81;21326;-55
2023/06/07 06:03:59;;;;;;;17.00;5.08;;;;;;;21.11;58.42;101162.60;1774237;79;21398;-54
2023/06/07 06:07:04;;;;;;;8.75;4.22;;;;;;;21.24;58.23;101157.47;1759848;79;21216;-54
2023/06/07 06:10:12;;;;;;;12.78;4.28;;;;;;;21.42;58.06;101169.52;1763691;80;21267;-60
2023/06/07 06:13:24;;;;;;;7.67;3.27;;;;;;;21.65;57.92;101165.57;1762146;81;21218;-55
2023/06/07 06:16:32;;;;;;;10.15;3.83;;;;;;;21.93;57.68;101167.88;1764802;79;21244;-54
2023/06/07 06:19:38;;;;;;;6.28;3.20;;;;;;;22.18;57.46;101159.76;1704770;82;21593;-54
2023/06/07 06:22:45;;;;;;;7.03;3.30;;;;;;;22.38;57.16;101164.24;1703325;82;21438;-54
2023/06/07 06:25:52;;;;;;;11.50;6.58;;;;;;;22.51;56.84;101154.31;1717394;81;21757;-56
2023/06/07 06:28:59;;;;;;;9.45;4.03;;;;;;;22.65;56.58;101162.31;1697324;82;21869;-56
2023/06/07 06:32:08;;;;;;;40.48;7.90;;;;;;;22.71;56.22;101158.57;1763792;79;21741;-54
2023/06/07 06:35:15;;;;;;;11.18;4.30;;;;;;;22.84;55.99;101154.73;1762847;80;21239;-55
2023/06/07 06:38:20;;;;;;;9.23;4.37;;;;;;;22.93;55.70;101156.13;1761616;80;21338;-55
2023/06/07 06:41:26;;;;;;;7.65;3.40;;;;;;;22.99;55.35;101150.98;1761899;79;21205;-54
2023/06/07 06:44:33;;;;;;;4.92;3.20;;;;;;;23.05;55.14;101154.20;1755841;80;21211;-53
2023/06/07 06:47:41;;;;;;;7.40;2.90;;;;;;;23.12;54.89;101149.38;1766353;79;21812;-54
2023/06/07 06:50:49;;;;;;;7.47;2.30;;;;;;;23.13;54.55;101142.16;1764420;79;21184;-54
2023/06/07 06:53:55;;;;;;;5.40;2.58;;;;;;;23.17;54.29;101143.37;1775147;79;21180;-54
2023/06/07 06:57:02;;;;;;;8.08;2.80;;;;;;;23.21;54.01;101141.78;1714646;82;21199;-54
2023/06/07 07:00:11;;;;;;;10.25;3.17;;;;;;;23.29;53.81;101146.23;1767425;79;21204;-54
2023/06/07 07:03:17;;;;;;;5.20;2.70;;;;;;;23.35;53.64;101143.86;1770841;79;21370;-54
2023/06/07 07:06:22;;;;;;;9.28;2.65;;;;;;;23.42;53.44;101141.82;1765882;80;21192;-55
2023/06/07 07:09:30;;;;;;;7.22;2.85;;;;;;;23.48;53.18;101150.62;1754112;79;21196;-54
2023/06/07 07:12:40;;;;;;;4.17;2.40;;;;;;;23.53;52.88;101149.36;1767061;79;21361;-55
2023/06/07 07:15:46;;;;;;;4.05;2.12;;;;;;;23.57;52.63;101152.83;1750913;79;21184;-55
2023/06/07 07:18:54;;;;;;;5.58;2.30;;;;;;;23.64;52.32;101156.34;1759370;79;21239;-54
2023/06/07 07:22:00;;;;;;;9.05;2.80;;;;;;;23.69;52.00;101165.39;1754282;81;21860;-55
2023/06/07 07:25:09;;;;;;;8.58;2.25;;;;;;;23.77;51.80;101157.21;1757883;80;21705;-54
2023/06/07 07:28:15;;;;;;;4.65;2.47;;;;;;;23.83;51.52;101154.83;1765632;79;21769;-53
2023/06/07 07:31:21;;;;;;;4.40;2.40;;;;;;;23.90;51.23;101155.00;1763386;79;21203;-55
2023/06/07 07:34:26;;;;;;;7.05;2.20;;;;;;;23.99;50.94;101150.77;1768960;78;21252;-54
2023/06/07 07:37:33;;;;;;;6.28;2.27;;;;;;;24.08;50.64;101153.52;1768440;80;21316;-54
2023/06/07 07:40:39;;;;;;;5.78;2.60;;;;;;;24.17;50.38;101153.96;1767419;80;21512;-53
2023/06/07 07:43:45;;;;;;;10.40;2.55;;;;;;;24.27;50.17;101150.86;1768490;79;21351;-54
2023/06/07 07:46:50;;;;;;;5.10;2.35;;;;;;;24.37;49.91;101150.23;1752021;80;21200;-54
2023/06/07 07:49:55;;;;;;;4.83;2.65;;;;;;;24.45;49.58;101150.67;1762635;79;21197;-54
2023/06/07 07:53:02;;;;;;;5.47;2.45;;;;;;;24.53;49.26;101150.28;1765113;80;21586;-55
2023/06/07 07:56:07;;;;;;;4.60;2.00;;;;;;;24.62;48.93;101150.22;1765244;79;21193;-55
2023/06/07 07:59:13;;;;;;;3.25;1.82;;;;;;;24.69;48.58;101152.33;1762636;81;21208;-54
2023/06/07 08:02:21;;;;;;;5.60;2.80;;;;;;;24.77;48.26;101140.73;1773361;79;21216;-54
2023/06/07 08:05:32;;;;;;;4.80;2.12;;;;;;;24.85;47.92;101144.53;1760007;80;21277;-52
2023/06/07 08:08:43;;;;;;;6.65;2.62;;;;;;;24.94;47.67;101144.41;1674921;84;21235;-53
2023/06/07 08:11:51;;;;;;;2.95;1.87;;;;;;;25.03;47.34;101148.53;1757628;79;21200;-55
2023/06/07 08:15:07;;;;;;;3.85;2.08;;;;;;;25.11;46.97;101150.06;1774771;79;21208;-52
2023/06/07 08:18:13;;;;;;;4.12;1.82;;;;;;;25.17;46.62;101143.45;1767193;79;21251;-47
2023/06/07 08:21:20;;;;;;;3.95;1.95;;;;;;;25.29;46.29;101148.41;1741480;80;21201;-48
2023/06/07 08:24:25;;;;;;;5.03;2.20;;;;;;;25.35;45.90;101153.06;1695798;82;21258;-49
2023/06/07 08:27:30;;;;;;;3.17;2.15;;;;;;;25.41;45.52;101144.17;1745583;80;22117;-47
2023/06/07 08:30:35;;;;;;;6.15;2.27;;;;;;;25.49;45.17;101146.55;1756699;79;21526;-48
2023/06/07 08:33:42;;;;;;;7.00;2.30;;;;;;;25.57;44.88;101144.19;1750798;80;21356;-50
2023/06/07 08:36:50;;;;;;;4.35;2.10;;;;;;;25.68;44.60;101144.64;1741806;81;21550;-51
2023/06/07 08:39:58;;;;;;;5.67;2.20;;;;;;;25.78;44.25;101137.77;1763426;80;21174;-55
2023/06/07 08:43:07;;;;;;;3.45;2.08;;;;;;;25.90;43.91;101141.87;1759470;81;21271;-52
2023/06/07 08:46:15;;;;;;;4.92;2.12;;;;;;;26.01;43.58;101137.60;1750257;81;21204;-53
2023/06/07 08:49:22;;;;;;;7.55;3.65;;;;;;;26.13;43.13;101131.88;1760854;80;21730;-50
2023/06/07 08:52:30;;;;;;;8.25;2.72;;;;;;;26.30;42.81;101129.86;1762113;80;21196;-52
2023/06/07 08:55:38;;;;;;;5.50;2.30;;;;;;;26.52;42.58;101129.84;1757946;79;21316;-52
2023/06/07 08:58:45;;;;;;;4.17;2.30;;;;;;;26.76;42.25;101129.89;1732286;82;21290;-54
2023/06/07 09:01:55;;;;;;;8.80;2.75;;;;;;;26.96;41.93;101129.55;1734238;82;21747;-51
2023/06/07 09:05:07;;;;;;;6.03;2.80;;;;;;;27.13;41.55;101124.66;1734089;81;21196;-52
2023/06/07 09:08:11;;;;;;;9.60;3.10;;;;;;;27.32;41.33;101124.59;1734551;81;21251;-52
2023/06/07 09:11:18;;;;;;;5.10;2.70;;;;;;;27.58;41.15;101122.28;1767348;79;21201;-52
2023/06/07 09:14:25;;;;;;;4.47;2.80;;;;;;;27.89;40.99;101123.94;1758359;81;21200;-53
2023/06/07 09:17:59;;;;;;;4.75;2.80;;;;;;;28.15;40.52;101125.77;1768211;80;21761;-53
2023/06/07 09:21:05;;;;;;;5.97;2.80;;;;;;;28.32;40.06;101116.58;1764379;80;21279;-50
2023/06/07 09:24:12;;;;;;;5.53;2.62;;;;;;;28.42;39.45;101107.61;1767766;81;21181;-53
2023/06/07 09:27:19;;;;;;;3.58;2.55;;;;;;;28.24;38.78;101108.66;1757476;81;21268;-53
2023/06/07 09:30:25;;;;;;;5.60;2.67;;;;;;;28.02;38.40;101111.63;1689877;81;21228;-51
2023/06/07 09:33:39;;;;;;;3.87;2.40;;;;;;;27.90;38.04;101105.37;1762993;80;21714;-52
2023/06/07 09:36:58;;;;;;;7.37;2.70;;;;;;;27.88;37.81;101113.78;1762193;80;21208;-52
2023/06/07 09:40:09;;;;;;;7.30;2.47;;;;;;;27.87;37.61;101111.52;1764795;80;21196;-50
2023/06/07 09:43:17;;;;;;;4.67;2.50;;;;;;;27.75;37.29;101111.70;1746792;80;21901;-51
2023/06/07 09:46:23;;;;;;;4.75;2.85;;;;;;;27.76;37.05;101112.02;1768138;81;21912;-51
2023/06/07 09:49:37;;;;;;;5.25;2.92;;;;;;;27.87;36.88;101110.11;1770493;80;21224;-51
2023/06/07 09:52:43;;;;;;;5.20;3.12;;;;;;;27.99;36.64;101116.97;1746304;81;21355;-51
2023/06/07 09:55:49;;;;;;;7.58;3.95;;;;;;;28.12;36.32;101109.42;1770160;79;21980;-53
2023/06/07 09:59:16;;;;;;;9.78;3.58;;;;;;;28.28;36.10;101105.02;1763884;79;21371;-50
2023/06/07 10:02:32;;;;;;;7.40;3.55;;;;;;;28.40;35.79;101100.56;1767074;79;21220;-53
2023/06/07 10:05:41;;;;;;;6.90;3.58;;;;;;;28.49;35.51;101101.75;1759672;81;21723;-54
2023/06/07 10:08:48;;;;;;;11.20;5.60;;;;;;;28.60;35.30;101095.02;1767567;79;21382;-56
2023/06/07 10:12:00;;;;;;;4.65;3.10;;;;;;;28.77;35.16;101090.84;1772397;79;21355;-54
2023/06/07 10:15:11;;;;;;;6.58;3.27;;;;;;;29.00;35.05;101089.48;1767574;81;21367;-54
2023/06/07 10:18:26;;;;;;;7.72;2.98;;;;;;;29.15;34.76;101086.14;1758282;79;21899;-56
2023/06/07 10:21:21;;;;;;;6.22;3.75;;;;;;;29.31;34.59;101085.58;1753155;80;21792;-54
2023/06/07 10:24:48;;;;;;;4.97;2.85;;;;;;;29.50;34.32;101083.88;1765331;79;21292;-54
2023/06/07 10:28:09;;;;;;;9.68;3.60;;;;;;;29.77;33.56;101085.84;1771241;79;21356;-54
2023/06/07 10:31:17;;;;;;;10.90;4.15;;;;;;;29.89;33.50;101077.90;1760072;79;21197;-54
2023/06/07 10:34:24;;;;;;;7.45;3.90;;;;;;;29.89;33.50;101077.90;1763053;79;21231;-54
2023/06/07 10:37:33;;;;;;;5.15;3.25;;;;;;;30.24;33.16;101072.16;1745771;81;21354;-53
2023/06/07 10:40:39;;;;;;;18.10;4.12;;;;;;;30.24;33.16;101072.16;1763107;81;21312;-53
2023/06/07 10:43:46;;;;;;;5.33;3.60;;;;;;;30.14;32.89;101072.20;1753791;81;21406;-57
2023/06/07 10:46:53;;;;;;;7.58;3.70;;;;;;;30.03;32.56;101072.51;1769812;79;21795;-53
2023/06/07 10:50:01;;;;;;;7.95;3.90;;;;;;;29.95;32.32;101065.48;1766498;81;21185;-53
2023/06/07 10:53:09;;;;;;;9.43;4.15;;;;;;;29.87;32.13;101058.16;1772557;79;21189;-53
2023/06/07 10:56:37;;;;;;;6.50;3.70;;;;;;;29.86;32.09;101050.23;1766534;80;21172;-54
2023/06/07 10:59:46;;;;;;;4.78;3.62;;;;;;;30.10;32.18;101054.67;1761231;80;21224;-55
2023/06/07 11:02:53;;;;;;;7.78;3.50;;;;;;;30.12;31.83;101056.09;1767509;79;21193;-56
2023/06/07 11:06:09;;;;;;;5.97;3.25;;;;;;;29.92;31.55;101056.14;1743739;81;21220;-54
2023/06/07 11:09:32;;;;;;;5.87;3.58;;;;;;;29.75;31.30;101057.05;1755149;80;21227;-54
2023/06/07 11:12:56;;;;;;;5.22;3.90;;;;;;;29.50;31.25;101060.44;1766806;80;21707;-55
2023/06/07 11:16:04;;;;;;;5.42;3.47;;;;;;;29.50;31.25;101060.44;1769072;80;21382;-54
2023/06/07 11:19:17;;;;;;;6.00;3.20;;;;;;;29.48;30.85;101052.26;1770176;81;21205;-53
2023/06/07 11:22:26;;;;;;;4.12;3.27;;;;;;;29.48;30.85;101052.26;1765390;79;21228;-53
2023/06/07 11:25:33;;;;;;;6.45;3.55;;;;;;;29.68;30.98;101041.55;1738220;79;21236;-53
2023/06/07 11:28:42;;;;;;;5.87;3.62;;;;;;;29.68;30.98;101041.55;1766269;80;21242;-53
2023/06/07 11:31:49;;;;;;;4.50;3.50;;;;;;;29.81;30.62;101043.19;1774492;78;21545;-55
2023/06/07 11:35:06;;;;;;;6.75;4.20;;;;;;;29.88;30.47;101042.33;1750341;80;21204;-54
2023/06/07 11:38:14;;;;;;;4.58;3.50;;;;;;;29.91;30.27;101037.52;1729450;80;21538;-54
2023/06/07 11:41:21;;;;;;;4.87;3.47;;;;;;;29.96;30.09;101040.89;1750142;79;21350;-53
2023/06/07 11:44:30;;;;;;;6.87;3.83;;;;;;;29.98;29.83;101032.98;1751074;79;21220;-53
2023/06/07 11:47:36;;;;;;;6.40;3.90;;;;;;;29.91;29.62;101033.28;1742269;81;21254;-56
2023/06/07 11:50:47;;;;;;;4.90;3.45;;;;;;;29.88;29.52;101032.45;1757730;79;21791;-54
2023/06/07 11:53:56;;;;;;;4.83;3.35;;;;;;;29.85;29.44;101030.20;1766093;80;21220;-54
2023/06/07 11:57:02;;;;;;;7.45;3.85;;;;;;;29.80;29.29;101023.71;1746502;79;21209;-54
2023/06/07 12:00:13;;;;;;;5.05;3.27;;;;;;;29.65;29.13;101031.68;1765518;79;21609;-53
2023/06/07 12:03:20;;;;;;;7.22;3.55;;;;;;;29.44;28.89;101024.90;1765454;80;21216;-54
2023/06/07 12:06:25;;;;;;;6.60;3.87;;;;;;;29.28;28.82;101025.48;1770320;81;21377;-54
2023/06/07 12:09:32;;;;;;;8.30;3.75;;;;;;;29.23;28.81;101019.84;1770510;80;21260;-55
2023/06/07 12:12:40;;;;;;;6.95;3.60;;;;;;;29.23;28.79;101015.05;1767346;80;21212;-53
2023/06/07 12:15:55;;;;;;;6.33;3.45;;;;;;;29.31;28.80;101017.86;1766561;80;21351;-55
2023/06/07 12:19:02;;;;;;;8.90;3.95;;;;;;;29.44;28.79;101021.52;1765771;80;21565;-54
2023/06/07 12:22:13;;;;;;;8.15;3.47;;;;;;;29.41;28.52;101017.00;1769976;80;21208;-54
2023/06/07 12:25:23;;;;;;;13.88;3.83;;;;;;;29.15;28.79;101004.90;1752798;80;21734;-56
2023/06/07 12:28:33;;;;;;;6.95;3.87;;;;;;;29.14;28.31;101002.63;1764340;79;21212;-53
2023/06/07 12:31:46;;;;;;;32.53;4.50;;;;;;;29.14;28.31;101002.63;1731203;79;21299;-55
2023/06/07 12:34:49;;;;;;;7.78;3.30;;;;;;;29.27;28.55;101011.66;1687197;83;21233;-54
2023/06/07 12:37:56;;;;;;;8.55;3.40;;;;;;;29.36;28.53;101007.13;1699947;83;21196;-54
2023/06/07 12:41:04;;;;;;;8.10;3.98;;;;;;;29.31;28.17;101003.75;1712344;82;21504;-54
2023/06/07 12:44:17;;;;;;;9.35;3.52;;;;;;;29.32;28.88;101001.80;1678844;84;21275;-54
2023/06/07 12:47:23;;;;;;;7.53;3.80;;;;;;;29.32;28.88;101001.80;1716434;83;21209;-55
2023/06/07 12:50:28;;;;;;;12.93;4.30;;;;;;;29.23;28.50;100990.22;1702049;82;21205;-53
2023/06/07 12:53:34;;;;;;;5.40;3.70;;;;;;;29.23;28.50;100990.22;1719404;83;21260;-55
2023/06/07 12:56:39;;;;;;;7.22;3.50;;;;;;;29.31;28.46;100987.38;1710043;82;21193;-54
2023/06/07 12:59:48;;;;;;;9.20;4.60;;;;;;;29.37;28.52;100976.39;1725243;82;21616;-55
2023/06/07 13:02:55;;;;;;;8.55;3.30;;;;;;;29.48;28.60;100971.83;1692970;83;21277;-52
2023/06/07 13:06:01;;;;;;;7.28;2.95;;;;;;;29.53;28.76;100980.84;1707576;83;21721;-55
2023/06/07 13:09:14;;;;;;;3.95;3.00;;;;;;;29.53;28.76;100980.84;1698659;83;21566;-55
2023/06/07 13:12:20;;;;;;;6.03;3.40;;;;;;;29.59;28.56;100982.55;1713427;83;21193;-54
2023/06/07 13:15:28;;;;;;;4.62;3.22;;;;;;;29.63;28.39;100974.62;1719371;82;21495;-54
2023/06/07 13:18:38;;;;;;;5.03;3.05;;;;;;;29.63;28.39;100974.62;1706144;82;21260;-54
2023/06/07 13:21:44;;;;;;;4.47;2.90;;;;;;;29.61;28.29;100976.02;1705508;80;21176;-54
2023/06/07 13:24:51;;;;;;;5.62;2.83;;;;;;;29.56;28.17;100968.42;1699669;83;21694;-54
2023/06/07 13:28:02;;;;;;;4.70;2.98;;;;;;;29.56;28.14;100972.66;1709286;83;21273;-53
2023/06/07 13:31:14;;;;;;;3.70;2.83;;;;;;;29.60;28.02;100957.41;1708272;82;21233;-54
2023/06/07 13:34:21;;;;;;;5.28;3.15;;;;;;;29.60;28.02;100957.41;1717402;82;21599;-54
2023/06/07 13:37:28;;;;;;;8.55;3.47;;;;;;;29.68;28.09;100958.27;1767864;80;21741;-55
2023/06/07 13:40:36;;;;;;;5.17;3.27;;;;;;;29.71;28.03;100954.31;1760447;80;21344;-55
2023/06/07 13:43:43;;;;;;;6.15;3.45;;;;;;;29.64;27.89;100957.99;1767589;80;21201;-55
2023/06/07 13:46:50;;;;;;;5.00;3.10;;;;;;;29.48;27.65;100954.90;1768973;80;21189;-55
2023/06/07 13:49:56;;;;;;;4.90;3.12;;;;;;;29.48;27.65;100954.90;1767087;80;21173;-54
2023/06/07 13:53:04;;;;;;;5.30;3.40;;;;;;;29.44;27.66;100959.44;1766587;80;21585;-58
2023/06/07 13:56:10;;;;;;;6.55;3.60;;;;;;;29.46;27.67;100955.77;1757504;80;21550;-55
2023/06/07 13:59:17;;;;;;;6.45;3.40;;;;;;;29.49;27.70;100955.20;1739770;81;21741;-55
2023/06/07 14:02:23;;;;;;;5.50;3.60;;;;;;;29.56;27.69;100953.48;1739619;82;21243;-53
2023/06/07 14:05:30;;;;;;;9.70;4.83;;;;;;;29.67;27.64;100955.17;1745983;80;21220;-54
2023/06/07 14:08:35;;;;;;;9.20;3.98;;;;;;;29.72;27.60;100948.08;1767602;80;21851;-48
2023/06/07 14:11:41;;;;;;;5.78;2.95;;;;;;;29.84;27.57;100942.95;1738942;81;21820;-52
2023/06/07 14:14:47;;;;;;;5.50;3.05;;;;;;;29.91;27.53;100951.95;1738552;81;21256;-52
2023/06/07 14:17:53;;;;;;;7.15;3.15;;;;;;;29.97;27.28;100943.16;1739203;82;21562;-52
2023/06/07 14:20:59;;;;;;;5.90;3.02;;;;;;;30.07;27.43;100947.91;1741164;82;21366;-54
2023/06/07 14:24:04;;;;;;;7.03;3.62;;;;;;;30.09;27.36;100938.59;1740490;82;21236;-54
2023/06/07 14:27:11;;;;;;;8.83;2.95;;;;;;;30.08;27.32;100943.39;1739033;82;21193;-54
2023/06/07 14:30:18;;;;;;;8.18;3.98;;;;;;;30.03;27.20;100935.52;1738675;82;21777;-52